Welcome to Des Moines Iowa Weather. I am an independent private personal weather station on the Northwest Side of Des Moines, Iowa. Just East of Windsor Heights and just West of Glendale . This site is also mobile friendly.

There are no active watches, warnings or advisories


Visit our other weather sites:

Historical Data

Weather Station Setup



Weather Underground History page Text

Daily Summary for August 13, 2017 Units:  English    Metric   Both
« Previous Day
Next Day »
Daily Weekly Monthly Yearly Custom
  High: Low: Average:
Temperature: 79.8 °F 63.2 °F 70.6 °F
Dew Point: 63.0 °F 56.0 °F 58.4 °F
Humidity: 81 % 50 % 66 %
Wind Speed: 2.0 mph 0.0 mph 0.2 mph
Wind Gust: 9.0 mph - -
Wind:- - SE
Pressure: 30.01 in 29.82 in -
Precipitation: 0.00 in    
Historical Graphs
 
 
Tabular Data for August 13, 2017
Time Temperature Dew Point Pressure Wind Wind Speed Wind Gust Humidity Rainfall Rate (Hourly)
00:02 68.9 °F 57.0 °F 30.01 in Calm   3.0 mph 67 % 0.00 in
00:17 68.5 °F 57.0 °F 30.01 in SSE 1.0 mph 5.0 mph 67 % 0.00 in
00:32 68.1 °F 57.0 °F 30.01 in Calm   2.0 mph 68 % 0.00 in
00:47 67.7 °F 57.0 °F 30.01 in Calm   3.0 mph 69 % 0.00 in
01:02 67.5 °F 57.0 °F 30.01 in Calm   3.0 mph 69 % 0.00 in
01:17 67.1 °F 57.0 °F 30.00 in ESE 2.0 mph 2.0 mph 69 % 0.00 in
01:32 66.8 °F 57.0 °F 30.01 in WSW 1.0 mph 4.0 mph 70 % 0.00 in
01:48 66.6 °F 57.0 °F 30.01 in Calm   5.0 mph 70 % 0.00 in
02:03 66.4 °F 57.0 °F 30.01 in SSE 2.0 mph 3.0 mph 71 % 0.00 in
02:18 66.1 °F 56.0 °F 30.01 in Calm   6.0 mph 71 % 0.00 in
02:32 66.0 °F 56.0 °F 30.00 in South 1.0 mph 3.0 mph 71 % 0.00 in
02:48 65.9 °F 56.0 °F 30.00 in Calm   2.0 mph 71 % 0.00 in
03:03 65.9 °F 56.0 °F 30.00 in Calm   3.0 mph 71 % 0.00 in
03:18 65.8 °F 56.0 °F 29.99 in Calm   2.0 mph 71 % 0.00 in
03:33 65.6 °F 56.0 °F 29.99 in Calm   3.0 mph 72 % 0.00 in
03:48 65.4 °F 57.0 °F 29.99 in Calm   2.0 mph 73 % 0.00 in
04:03 65.2 °F 56.0 °F 29.98 in Calm   2.0 mph 73 % 0.00 in
04:18 65.0 °F 57.0 °F 29.98 in Calm     74 % 0.00 in
04:33 64.8 °F 56.0 °F 29.97 in Calm   2.0 mph 74 % 0.00 in
04:48 64.5 °F 56.0 °F 29.97 in ESE 1.0 mph 2.0 mph 75 % 0.00 in
05:03 64.3 °F 57.0 °F 29.97 in Calm   1.0 mph 76 % 0.00 in
05:18 64.1 °F 56.0 °F 29.97 in Calm   2.0 mph 76 % 0.00 in
05:33 63.9 °F 57.0 °F 29.96 in Calm   1.0 mph 77 % 0.00 in
05:48 63.8 °F 56.0 °F 29.96 in Calm     77 % 0.00 in
06:03 63.6 °F 57.0 °F 29.96 in Calm   1.0 mph 78 % 0.00 in
06:18 63.3 °F 57.0 °F 29.96 in Calm     79 % 0.00 in
06:33 63.2 °F 57.0 °F 29.96 in Calm     79 % 0.00 in
06:48 63.2 °F 57.0 °F 29.96 in Calm     80 % 0.00 in
07:03 63.2 °F 57.0 °F 29.97 in Calm     80 % 0.00 in
07:18 63.3 °F 57.0 °F 29.97 in Calm     80 % 0.00 in
07:33 63.4 °F 58.0 °F 29.97 in Calm     81 % 0.00 in
07:48 63.4 °F 58.0 °F 29.97 in Calm     81 % 0.00 in
08:03 63.5 °F 57.0 °F 29.97 in ESE 1.0 mph 1.0 mph 80 % 0.00 in
08:18 63.8 °F 58.0 °F 29.98 in Calm     80 % 0.00 in
08:33 64.4 °F 58.0 °F 29.98 in Calm   1.0 mph 79 % 0.00 in
08:48 65.1 °F 58.0 °F 29.98 in Calm   2.0 mph 78 % 0.00 in
09:03 65.8 °F 58.0 °F 29.98 in Calm   2.0 mph 76 % 0.00 in
09:18 66.6 °F 58.0 °F 29.98 in ESE 1.0 mph 2.0 mph 75 % 0.00 in
09:33 67.4 °F 59.0 °F 29.98 in Calm   3.0 mph 75 % 0.00 in
09:48 68.3 °F 60.0 °F 29.98 in Calm   1.0 mph 74 % 0.00 in
10:03 69.3 °F 60.0 °F 29.98 in Calm   2.0 mph 73 % 0.00 in
10:18 70.1 °F 60.0 °F 29.97 in Calm   4.0 mph 70 % 0.00 in
10:33 70.4 °F 60.0 °F 29.97 in Calm   2.0 mph 70 % 0.00 in
10:49 70.5 °F 60.0 °F 29.97 in Calm     70 % 0.00 in
11:04 70.9 °F 61.0 °F 29.97 in Calm   1.0 mph 70 % 0.00 in
11:19 71.8 °F 61.0 °F 29.97 in Calm   2.0 mph 69 % 0.00 in
11:34 72.0 °F 61.0 °F 29.97 in Calm   2.0 mph 68 % 0.00 in
11:49 72.2 °F 61.0 °F 29.97 in Calm     69 % 0.00 in
12:04 72.6 °F 61.0 °F 29.96 in SE 1.0 mph 2.0 mph 68 % 0.00 in
12:19 73.0 °F 61.0 °F 29.96 in Calm   3.0 mph 67 % 0.00 in
12:34 73.9 °F 63.0 °F 29.96 in Calm   2.0 mph 68 % 0.00 in
12:49 75.2 °F 63.0 °F 29.95 in Calm   4.0 mph 65 % 0.00 in
13:04 76.4 °F 63.0 °F 29.95 in Calm   2.0 mph 63 % 0.00 in
13:19 76.6 °F 63.0 °F 29.95 in Calm     62 % 0.00 in
13:34 76.7 °F 61.0 °F 29.94 in SE 1.0 mph 4.0 mph 58 % 0.00 in
13:49 77.0 °F 61.0 °F 29.94 in Calm   3.0 mph 58 % 0.00 in
14:04 77.1 °F 61.0 °F 29.94 in Calm   1.0 mph 58 % 0.00 in
14:19 76.8 °F 60.0 °F 29.94 in Calm   2.0 mph 57 % 0.00 in
14:34 76.6 °F 61.0 °F 29.93 in Calm     59 % 0.00 in
14:49 76.5 °F 63.0 °F 29.93 in Calm     63 % 0.00 in
15:04 76.4 °F 61.0 °F 29.92 in Calm   1.0 mph 60 % 0.00 in
15:19 76.4 °F 61.0 °F 29.91 in Calm   2.0 mph 60 % 0.00 in
15:34 77.9 °F 63.0 °F 29.91 in Calm   4.0 mph 61 % 0.00 in
15:49 78.2 °F 60.0 °F 29.90 in Calm   6.0 mph 54 % 0.00 in
16:04 79.8 °F 62.0 °F 29.89 in NE 1.0 mph 5.0 mph 54 % 0.00 in
16:19 79.2 °F 61.0 °F 29.89 in Calm   5.0 mph 53 % 0.00 in
16:34 79.6 °F 59.0 °F 29.89 in South 2.0 mph 5.0 mph 50 % 0.00 in
16:49 79.4 °F 60.0 °F 29.88 in Calm   4.0 mph 52 % 0.00 in
17:05 79.1 °F 60.0 °F 29.88 in Calm   9.0 mph 52 % 0.00 in
17:19 79.5 °F 60.0 °F 29.87 in Calm   3.0 mph 51 % 0.00 in
17:34 78.8 °F 60.0 °F 29.87 in SE 1.0 mph 4.0 mph 52 % 0.00 in
17:49 78.9 °F 59.0 °F 29.86 in Calm   6.0 mph 51 % 0.00 in
18:05 78.3 °F 59.0 °F 29.86 in ESE 2.0 mph 4.0 mph 51 % 0.00 in
18:20 78.0 °F 59.0 °F 29.85 in Calm   2.0 mph 52 % 0.00 in
18:35 78.1 °F 58.0 °F 29.85 in Calm   5.0 mph 51 % 0.00 in
18:50 77.7 °F 58.0 °F 29.84 in Calm   3.0 mph 50 % 0.00 in
19:05 77.2 °F 58.0 °F 29.84 in Calm   2.0 mph 51 % 0.00 in
19:20 76.7 °F 58.0 °F 29.84 in Calm   1.0 mph 52 % 0.00 in
19:35 76.0 °F 58.0 °F 29.84 in Calm   1.0 mph 53 % 0.00 in
19:50 75.4 °F 57.0 °F 29.83 in Calm   2.0 mph 53 % 0.00 in
20:05 74.7 °F 57.0 °F 29.83 in Calm     55 % 0.00 in
20:20 73.9 °F 58.0 °F 29.83 in Calm     57 % 0.00 in
20:35 73.1 °F 57.0 °F 29.82 in Calm     57 % 0.00 in
20:50 72.4 °F 57.0 °F 29.83 in Calm     58 % 0.00 in
21:05 71.9 °F 57.0 °F 29.83 in Calm     60 % 0.00 in
21:20 71.3 °F 57.0 °F 29.84 in Calm     60 % 0.00 in
21:35 70.9 °F 57.0 °F 29.83 in Calm     61 % 0.00 in
21:50 70.3 °F 57.0 °F 29.83 in Calm     62 % 0.00 in
22:05 69.8 °F 57.0 °F 29.84 in Calm     63 % 0.00 in
22:20 69.4 °F 57.0 °F 29.84 in Calm     64 % 0.00 in
22:35 69.2 °F 57.0 °F 29.83 in Calm     65 % 0.00 in
22:50 68.8 °F 57.0 °F 29.83 in Calm     66 % 0.00 in
23:05 68.4 °F 57.0 °F 29.83 in Calm     66 % 0.00 in
23:20 68.0 °F 57.0 °F 29.84 in Calm     68 % 0.00 in
23:35 67.5 °F 57.0 °F 29.84 in Calm     69 % 0.00 in
23:50 67.0 °F 57.0 °F 29.83 in Calm     70 % 0.00 in
Des Moines Weather and Climate
Compliments of Weather Underground - 3 mb

Script developed by  Jim McMurry - jmcmurry@mwt.net Adapted for the template by  Wim van der Kuil - Leuven-Template.eu

You find our weather info also at:

Weather Underground

Equipment we use:

Weather-station
Davis VP2 Plus

Weather-program
Davis Weatherlink.Com

Weather-server
iMac (Retina 4K, 21.5-inch, Late 2015)

Provider
Hostmonster.com

Davis VP2 Plus

Davis Weatherlink.Com

iMac (Retina 4K, 21.5-inch, Late 2015)

Hostmonster.com